createdAt,value
2023-03-29T00:03:30.943Z,3.60
2023-03-29T00:08:38.171Z,3.05
2023-03-29T00:13:40.655Z,3.42
2023-03-29T00:18:42.916Z,3.55
2023-03-29T00:23:45.062Z,3.40
2023-03-29T00:28:47.256Z,3.85
2023-03-29T00:33:49.433Z,3.42
2023-03-29T00:38:51.780Z,3.40
2023-03-29T00:43:57.146Z,3.13
2023-03-29T00:49:07.434Z,3.42
2023-03-29T00:54:15.156Z,3.53
2023-03-29T00:59:23.613Z,3.30
2023-03-29T01:04:43.641Z,3.22
2023-03-29T01:09:56.179Z,3.35
2023-03-29T01:15:04.484Z,3.22
2023-03-29T01:20:19.367Z,3.42
2023-03-29T01:25:38.224Z,3.10
2023-03-29T01:30:48.475Z,3.42
2023-03-29T01:35:57.910Z,3.13
2023-03-29T01:41:03.160Z,3.22
2023-03-29T01:46:08.928Z,3.58
2023-03-29T01:51:24.811Z,3.03
2023-03-29T01:56:29.347Z,3.58
2023-03-29T02:01:40.428Z,3.38
2023-03-29T02:06:43.539Z,3.67
2023-03-29T02:11:47.639Z,3.85
2023-03-29T02:16:50.191Z,3.90
2023-03-29T02:22:07.462Z,3.85
2023-03-29T02:27:09.741Z,4.00
2023-03-29T02:32:21.282Z,3.70
2023-03-29T02:37:26.802Z,3.83
2023-03-29T02:42:31.646Z,3.97
2023-03-29T02:47:39.553Z,4.20
2023-03-29T02:52:47.240Z,4.40
2023-03-29T02:57:49.511Z,4.78
2023-03-29T03:02:52.277Z,4.78
2023-03-29T03:07:55.023Z,5.15
2023-03-29T03:12:57.303Z,5.28
2023-03-29T03:18:00.892Z,6.18
2023-03-29T03:23:05.817Z,6.28
2023-03-29T03:28:08.679Z,6.68
2023-03-29T03:33:11.817Z,6.80
2023-03-29T03:38:29.970Z,7.13
2023-03-29T03:43:35.793Z,7.32
2023-03-29T03:48:38.361Z,7.43
2023-03-29T03:53:44.406Z,8.25
2023-03-29T03:58:49.560Z,9.23
2023-03-29T04:03:54.637Z,8.82
2023-03-29T04:08:58.415Z,8.85
2023-03-29T04:14:09.609Z,8.73
2023-03-29T04:19:35.459Z,9.50
2023-03-29T04:24:37.727Z,9.75
2023-03-29T04:30:00.188Z,10.10
2023-03-29T04:45:37.724Z,9.18
2023-03-29T04:51:00.517Z,9.65
2023-03-29T04:56:03.278Z,8.88
2023-03-29T05:01:29.229Z,8.77
2023-03-29T05:06:33.625Z,8.07
2023-03-29T05:11:37.184Z,8.32
2023-03-29T05:16:39.513Z,8.18
2023-03-29T05:21:43.730Z,8.07
2023-03-29T05:26:52.112Z,7.32
2023-03-29T05:31:55.483Z,8.27
2023-03-29T05:36:59.320Z,7.93
2023-03-29T05:42:06.688Z,8.27
2023-03-29T05:47:20.828Z,7.82
2023-03-29T05:52:24.781Z,8.10
2023-03-29T05:57:27.609Z,7.47
2023-03-29T06:02:30.178Z,7.93
2023-03-29T06:07:33.769Z,7.95
2023-03-29T06:13:01.819Z,7.50
2023-03-29T06:18:07.745Z,6.10
2023-03-29T06:23:11.427Z,27.45
2023-03-29T06:28:14.691Z,7.25
2023-03-29T06:33:17.277Z,6.65
2023-03-29T06:38:21.001Z,6.55
2023-03-29T06:43:42.065Z,6.93
2023-03-29T06:48:50.465Z,6.60
2023-03-29T06:53:54.282Z,6.00
2023-03-29T06:58:56.948Z,6.43
2023-03-29T07:04:11.924Z,6.10
2023-03-29T07:09:36.079Z,6.07
2023-03-29T07:15:08.970Z,6.00
2023-03-29T07:20:32.269Z,6.15
2023-03-29T07:25:41.912Z,6.20
2023-03-29T07:30:44.588Z,6.28
2023-03-29T07:35:53.447Z,6.60
2023-03-29T07:40:56.420Z,6.68
2023-03-29T07:46:36.995Z,7.20
2023-03-29T07:51:39.826Z,7.32
2023-03-29T07:56:45.430Z,7.80
2023-03-29T08:02:04.332Z,7.63
2023-03-29T08:07:12.691Z,7.53
2023-03-29T08:12:33.126Z,7.32
2023-03-29T08:17:37.910Z,7.15
2023-03-29T08:22:41.361Z,7.60
2023-03-29T08:27:52.515Z,7.85
2023-03-29T08:33:09.556Z,8.10
2023-03-29T08:38:12.788Z,7.95
2023-03-29T08:43:52.734Z,8.35
2023-03-29T08:49:12.388Z,9.38
2023-03-29T08:54:22.033Z,9.23
2023-03-29T08:59:45.829Z,9.23
2023-03-29T09:04:53.182Z,6.65
2023-03-29T09:10:05.812Z,7.75
2023-03-29T09:16:06.338Z,9.20
2023-03-29T09:21:30.012Z,9.00
2023-03-29T09:26:47.908Z,9.32
2023-03-29T09:32:06.883Z,8.40
2023-03-29T09:37:22.055Z,9.65
2023-03-29T09:42:29.263Z,9.55
2023-03-29T09:47:44.987Z,13.90
2023-03-29T09:52:49.777Z,8.98
2023-03-29T09:58:02.702Z,9.02
2023-03-29T10:03:36.359Z,8.85
2023-03-29T10:08:50.718Z,8.15
2023-03-29T10:13:57.674Z,8.73
2023-03-29T10:19:19.401Z,8.45
2023-03-29T10:24:26.888Z,8.75
2023-03-29T10:29:42.725Z,9.60
2023-03-29T10:34:48.018Z,8.90
2023-03-29T10:39:50.726Z,8.63
2023-03-29T10:44:55.534Z,8.60
2023-03-29T10:49:59.021Z,9.52
2023-03-29T10:55:01.257Z,9.52
2023-03-29T11:00:34.655Z,7.68
2023-03-29T11:06:06.097Z,8.43
2023-03-29T11:11:09.039Z,8.97
2023-03-29T11:16:30.096Z,7.93
2023-03-29T11:22:16.667Z,7.57
2023-03-29T11:27:56.431Z,7.22
2023-03-29T11:33:22.039Z,7.85
2023-03-29T11:38:39.455Z,5.80
2023-03-29T11:44:13.602Z,6.80
2023-03-29T11:49:31.720Z,7.45
2023-03-29T11:54:34.774Z,8.00
2023-03-29T11:59:42.008Z,7.90
2023-03-29T12:04:49.563Z,7.85
2023-03-29T12:09:56.402Z,7.38
2023-03-29T12:15:07.376Z,7.93
2023-03-29T12:20:23.568Z,8.05
2023-03-29T12:25:52.322Z,7.97
2023-03-29T12:31:23.475Z,8.13
2023-03-29T12:36:52.405Z,7.20
2023-03-29T12:42:30.731Z,7.88
2023-03-29T12:47:55.654Z,7.93
2023-03-29T12:53:16.884Z,7.85
2023-03-29T12:58:26.922Z,7.20
2023-03-29T13:03:49.079Z,8.50
2023-03-29T13:09:03.643Z,8.40
2023-03-29T13:14:19.111Z,7.30
2023-03-29T13:19:57.208Z,7.63
2023-03-29T13:25:14.537Z,8.10
2023-03-29T13:30:45.344Z,8.02
2023-03-29T13:36:08.976Z,7.45
2023-03-29T13:41:29.073Z,7.85
2023-03-29T13:46:42.530Z,8.20
2023-03-29T13:51:53.982Z,7.75
2023-03-29T13:57:05.286Z,8.00
2023-03-29T14:07:14.439Z,7.88
2023-03-29T14:12:18.132Z,7.68
2023-03-29T14:17:22.958Z,7.57
2023-03-29T14:22:30.860Z,7.50
2023-03-29T14:27:37.340Z,8.10
2023-03-29T14:32:39.877Z,7.60
2023-03-29T14:37:46.630Z,7.90
2023-03-29T14:42:51.038Z,8.23
2023-03-29T14:47:53.657Z,7.22
2023-03-29T14:52:58.505Z,7.82
2023-03-29T14:58:00.784Z,6.90
2023-03-29T15:03:03.618Z,7.10
2023-03-29T15:08:10.543Z,6.95
2023-03-29T15:13:19.847Z,7.13
2023-03-29T15:18:28.747Z,7.30
2023-03-29T15:23:51.942Z,7.63
2023-03-29T15:29:12.679Z,8.38
2023-03-29T15:34:26.083Z,8.55
2023-03-29T15:39:29.566Z,7.18
2023-03-29T15:44:38.892Z,8.90
2023-03-29T15:49:41.319Z,14.35
2023-03-29T15:54:43.969Z,8.10
2023-03-29T15:59:46.454Z,7.47
2023-03-29T16:04:48.733Z,7.28
2023-03-29T16:09:51.158Z,8.32
2023-03-29T16:14:53.404Z,8.40
2023-03-29T16:19:55.652Z,9.18
2023-03-29T16:24:57.802Z,9.73
2023-03-29T16:30:00.223Z,9.25
2023-03-29T16:35:02.824Z,9.07
2023-03-29T16:40:07.905Z,8.98
2023-03-29T16:45:19.562Z,9.35
2023-03-29T16:50:22.323Z,8.10
2023-03-29T16:55:24.889Z,9.95
2023-03-29T17:00:27.234Z,9.60
2023-03-29T17:05:30.326Z,9.75
2023-03-29T17:10:32.896Z,9.00
2023-03-29T17:15:38.155Z,9.73
2023-03-29T17:20:41.774Z,9.57
2023-03-29T17:25:44.386Z,9.75
2023-03-29T17:30:48.035Z,9.32
2023-03-29T17:35:50.323Z,10.13
2023-03-29T17:40:56.052Z,9.65
2023-03-29T17:45:58.556Z,9.50
2023-03-29T17:51:01.024Z,11.15
2023-03-29T17:56:03.732Z,10.55
2023-03-29T18:01:10.783Z,10.68
2023-03-29T18:06:13.510Z,10.82
2023-03-29T18:11:28.515Z,12.43
2023-03-29T18:16:30.786Z,11.85
2023-03-29T18:21:33.063Z,11.77
2023-03-29T18:26:35.439Z,12.52
2023-03-29T18:31:37.803Z,12.50
2023-03-29T18:36:40.007Z,13.13
2023-03-29T18:41:42.228Z,14.23
2023-03-29T18:46:44.653Z,15.00
2023-03-29T18:51:47.854Z,15.32
2023-03-29T18:56:50.194Z,15.07
2023-03-29T19:01:52.482Z,16.60
2023-03-29T19:06:56.211Z,15.95
2023-03-29T19:11:58.519Z,15.82
2023-03-29T19:17:00.912Z,17.55
2023-03-29T19:22:03.317Z,18.25
2023-03-29T19:27:06.650Z,19.05
2023-03-29T19:32:08.976Z,19.42
2023-03-29T19:37:11.296Z,19.33
2023-03-29T19:42:13.557Z,20.05
2023-03-29T19:47:15.903Z,20.33
2023-03-29T19:52:18.305Z,21.25
2023-03-29T19:57:21.617Z,21.40
2023-03-29T20:02:23.880Z,23.23
2023-03-29T20:07:26.349Z,23.90
2023-03-29T20:12:28.557Z,25.25
2023-03-29T20:17:31.909Z,26.92
2023-03-29T20:22:34.074Z,27.10
2023-03-29T20:27:36.374Z,27.98
2023-03-29T20:32:38.600Z,29.00
2023-03-29T20:37:40.926Z,29.50
2023-03-29T20:42:43.153Z,30.48
2023-03-29T20:47:57.952Z,31.45
2023-03-29T20:53:03.816Z,29.90
2023-03-29T20:58:07.962Z,28.17
2023-03-29T21:03:11.426Z,30.10
2023-03-29T21:08:17.698Z,29.30
2023-03-29T21:13:19.928Z,29.38
2023-03-29T21:18:23.571Z,27.48
2023-03-29T21:23:26.441Z,27.08
2023-03-29T21:28:29.039Z,27.15
2023-03-29T21:33:31.331Z,28.23
2023-03-29T21:38:33.625Z,27.13
2023-03-29T21:43:36.039Z,26.42
2023-03-29T21:48:38.519Z,26.67
2023-03-29T21:53:41.502Z,28.10
2023-03-29T21:58:43.851Z,26.58
2023-03-29T22:03:46.560Z,27.00
2023-03-29T22:08:53.238Z,25.50
2023-03-29T22:13:55.863Z,26.58
2023-03-29T22:18:58.236Z,25.10
2023-03-29T22:24:01.493Z,24.10
2023-03-29T22:29:04.118Z,23.42
2023-03-29T22:34:06.894Z,23.98
2023-03-29T22:39:09.239Z,24.45
2023-03-29T22:44:12.020Z,23.40
2023-03-29T22:49:15.192Z,24.10
2023-03-29T22:54:17.895Z,23.00
2023-03-29T22:59:20.327Z,23.70
2023-03-29T23:04:22.546Z,23.58
2023-03-29T23:09:25.017Z,22.67
2023-03-29T23:14:27.322Z,23.35
2023-03-29T23:19:29.582Z,23.65
2023-03-29T23:24:31.898Z,21.85
2023-03-29T23:29:34.690Z,22.80
2023-03-29T23:34:37.017Z,20.63
2023-03-29T23:39:39.629Z,19.98
2023-03-29T23:44:42.147Z,19.05
2023-03-29T23:49:45.514Z,19.25
2023-03-29T23:54:48.081Z,18.17
2023-03-29T23:59:52.840Z,18.20
